Time;durP1;ratioP1;P1;durP2;ratioP2;P2;SDS_P1;SDS_P2;PMS_P1;PMS_P2;Temp;Humidity;BMP_temperature;BMP_pressure;BME280_temperature;BME280_humidity;BME280_pressure;Samples;Min_cycle;Max_cycle;Signal;HPM_P1;HPM_P2
2023/01/11 00:02:14;;;;;;;12.75;2.40;;;13.60;98.30;;;;;;7368308;19;20324;-79
2023/01/11 00:04:43;;;;;;;9.20;2.50;;;13.80;98.10;;;;;;7366829;19;20019;-79
2023/01/11 00:07:11;;;;;;;11.70;2.33;;;13.90;97.90;;;;;;7390520;19;20018;-79
2023/01/11 00:09:40;;;;;;;4.57;2.25;;;13.90;97.70;;;;;;7370372;19;20029;-79
2023/01/11 00:12:13;;;;;;;7.65;2.22;;;13.90;97.80;;;;;;7370434;19;20018;-80
2023/01/11 00:14:41;;;;;;;7.07;2.03;;;13.90;97.90;;;;;;7371830;19;20079;-79
2023/01/11 00:17:13;;;;;;;7.25;2.13;;;13.90;97.90;;;;;;7366487;19;20022;-80
2023/01/11 00:19:41;;;;;;;;;;;13.70;98.30;;;;;;7367287;19;20346;-80
2023/01/11 00:22:10;;;;;;;10.48;2.13;;;13.90;98.20;;;;;;7387651;19;19919;-80
2023/01/11 00:24:39;;;;;;;7.00;2.00;;;13.90;97.90;;;;;;7365088;19;20025;-79
2023/01/11 00:27:08;;;;;;;11.38;2.00;;;13.80;98.30;;;;;;7367557;19;20035;-79
2023/01/11 00:29:36;;;;;;;10.63;2.97;;;13.90;98.10;;;;;;7366395;19;20015;-80
2023/01/11 00:32:05;;;;;;;7.40;2.22;;;13.90;98.10;;;;;;7365679;19;20014;-79
2023/01/11 00:34:37;;;;;;;10.70;2.40;;;13.70;98.60;;;;;;7364995;19;20050;-80
2023/01/11 00:37:06;;;;;;;;;;;13.50;99.10;;;;;;7386178;19;20018;-79
2023/01/11 00:39:34;;;;;;;8.52;2.13;;;13.70;99.10;;;;;;7362911;19;19971;-81
2023/01/11 00:50:10;;;;;;;8.15;2.28;;;13.80;98.50;;;;;;7370255;19;20027;-79
2023/01/11 00:52:39;;;;;;;9.63;1.80;;;13.90;98.40;;;;;;7369934;19;20030;-79
2023/01/11 00:55:09;;;;;;;6.55;2.30;;;13.90;98.40;;;;;;7389106;19;20007;-79
2023/01/11 00:57:38;;;;;;;6.68;2.00;;;14.00;98.30;;;;;;7369403;19;20554;-79
2023/01/11 01:00:09;;;;;;;5.47;2.03;;;14.00;98.20;;;;;;7370622;19;20072;-79
2023/01/11 01:02:38;;;;;;;6.25;1.92;;;14.00;98.10;;;;;;7375720;19;20042;-79
2023/01/11 01:05:10;;;;;;;6.80;2.40;;;14.10;98.00;;;;;;7374670;19;20410;-80
2023/01/11 01:07:39;;;;;;;7.68;2.30;;;14.00;98.00;;;;;;7373575;19;20034;-80
2023/01/11 01:10:10;;;;;;;6.80;2.47;;;13.80;98.50;;;;;;7394650;19;20018;-80
2023/01/11 01:15:20;;;;;;;9.75;2.00;;;14.00;98.50;;;;;;7371829;19;20015;-80
2023/01/11 01:17:49;;;;;;;5.53;2.00;;;14.00;98.40;;;;;;7372155;19;20018;-80
2023/01/11 01:20:22;;;;;;;4.50;2.60;;;14.00;98.40;;;;;;7375617;19;20037;-80
2023/01/11 01:22:51;;;;;;;5.35;2.30;;;14.00;98.40;;;;;;7373788;19;20018;-80
2023/01/11 01:25:20;;;;;;;9.80;2.90;;;13.90;98.60;;;;;;7394379;19;20014;-80
2023/01/11 01:27:49;;;;;;;4.53;2.30;;;13.80;98.90;;;;;;7373905;19;20049;-80
2023/01/11 01:30:18;;;;;;;5.88;1.90;;;13.60;99.10;;;;;;7373455;19;20479;-80
2023/01/11 01:32:47;;;;;;;5.38;1.73;;;13.80;99.10;;;;;;7377380;19;20035;-80
2023/01/11 01:35:16;;;;;;;6.28;1.75;;;13.70;99.10;;;;;;7396228;19;20019;-80
2023/01/11 01:37:48;;;;;;;5.78;1.80;;;13.60;99.30;;;;;;7395310;19;20025;-80
2023/01/11 01:40:17;;;;;;;12.45;2.00;;;13.80;99.20;;;;;;7398088;19;20007;-80
2023/01/11 01:42:46;;;;;;;2.25;1.50;;;13.90;98.80;;;;;;7375741;19;20006;-80
2023/01/11 01:45:23;;;;;;;5.32;1.42;;;14.00;98.60;;;;;;7372679;19;20007;-80
2023/01/11 01:47:57;;;;;;;4.30;1.52;;;13.90;98.80;;;;;;7371896;19;20031;-81
2023/01/11 01:50:31;;;;;;;2.85;1.60;;;13.90;98.70;;;;;;7371996;19;20085;-79
2023/01/11 01:53:05;;;;;;;2.58;1.38;;;13.90;98.70;;;;;;7370623;19;20014;-80
2023/01/11 01:55:37;;;;;;;6.68;1.38;;;13.90;98.70;;;;;;7372062;19;20017;-80
2023/01/11 01:58:11;;;;;;;2.75;1.20;;;14.00;98.70;;;;;;7392909;19;20098;-81
2023/01/11 02:00:45;;;;;;;1.70;1.10;;;13.80;98.80;;;;;;7368906;19;20031;-81
2023/01/11 02:03:19;;;;;;;3.47;1.25;;;13.90;98.90;;;;;;7370926;19;20014;-81
2023/01/11 02:05:48;;;;;;;2.28;0.90;;;14.00;98.80;;;;;;7370561;19;20035;-80
2023/01/11 02:08:26;;;;;;;5.80;1.38;;;13.80;99.10;;;;;;7369900;19;20019;-80
2023/01/11 02:10:56;;;;;;;2.53;1.05;;;13.70;99.30;;;;;;7370253;19;20575;-80
2023/01/11 02:13:24;;;;;;;2.85;1.00;;;13.90;99.10;;;;;;7369380;19;20111;-80
2023/01/11 02:16:06;;;;;;;1.58;0.90;;;14.00;98.90;;;;;;7393010;19;20098;-80
2023/01/11 02:18:36;;;;;;;2.03;1.10;;;13.80;99.20;;;;;;7370318;19;20014;-80
2023/01/11 02:21:15;;;;;;;6.68;1.10;;;13.80;99.30;;;;;;7371501;19;20015;-80
2023/01/11 02:24:19;;;;;;;3.60;1.20;;;13.80;99.20;;;;;;7372848;19;20118;-80
2023/01/11 02:27:12;;;;;;;1.33;0.90;;;14.00;99.00;;;;;;7370286;19;20048;-80
2023/01/11 02:29:56;;;;;;;1.40;0.82;;;14.00;99.00;;;;;;7368956;19;20015;-81
2023/01/11 02:32:31;;;;;;;1.17;0.80;;;13.90;99.00;;;;;;7369986;19;20019;-80
2023/01/11 02:35:11;;;;;;;4.85;1.05;;;13.90;98.80;;;;;;7369339;19;20314;-81
2023/01/11 02:37:48;;;;;;;1.67;0.70;;;13.80;99.10;;;;;;7372104;19;20027;-81
2023/01/11 02:40:23;;;;;;;0.95;0.75;;;13.80;99.20;;;;;;7394129;19;20028;-81
2023/01/11 02:45:48;;;;;;;3.45;0.98;;;13.90;99.30;;;;;;7369045;19;20091;-80
2023/01/11 02:48:24;;;;;;;1.08;0.52;;;14.00;99.00;;;;;;7370241;19;20010;-80
2023/01/11 02:51:00;;;;;;;1.05;0.63;;;13.90;99.00;;;;;;7369894;19;20110;-81
2023/01/11 02:53:33;;;;;;;1.75;0.70;;;14.00;99.00;;;;;;7370589;19;20010;-80
2023/01/11 02:56:07;;;;;;;2.15;0.90;;;13.90;99.00;;;;;;7369668;19;20037;-81
2023/01/11 02:58:40;;;;;;;0.50;0.50;;;13.90;99.00;;;;;;7369809;19;20022;-81
2023/01/11 03:01:12;;;;;;;1.05;0.40;;;13.90;99.00;;;;;;7388280;19;20094;-80
2023/01/11 03:03:41;;;;;;;2.20;0.50;;;13.80;99.20;;;;;;7369074;19;20014;-80
2023/01/11 03:06:19;;;;;;;2.95;0.65;;;13.60;99.60;;;;;;7370172;19;20003;-81
2023/01/11 03:09:15;;;;;;;0.80;0.50;;;13.80;99.40;;;;;;7369730;19;20010;-81
2023/01/11 03:14:47;;;;;;;1.48;0.60;;;13.80;99.30;;;;;;7368853;19;20039;-80
2023/01/11 03:17:31;;;;;;;0.47;0.47;;;13.90;99.30;;;;;;7368577;19;20499;-81
2023/01/11 03:20:08;;;;;;;1.25;0.60;;;13.90;99.30;;;;;;7365627;19;20347;-80
2023/01/11 03:22:47;;;;;;;0.50;0.40;;;14.00;98.90;;;;;;7368542;19;20010;-80
2023/01/11 03:25:23;;;;;;;1.35;0.50;;;14.10;99.00;;;;;;7389220;19;20019;-80
2023/01/11 03:27:58;;;;;;;3.90;0.60;;;14.00;99.00;;;;;;7367386;19;20043;-81
2023/01/11 03:30:34;;;;;;;0.82;0.60;;;14.10;98.90;;;;;;7367469;19;20010;-80
2023/01/11 03:33:11;;;;;;;1.58;0.75;;;14.10;98.90;;;;;;7368715;19;20826;-81
2023/01/11 03:35:48;;;;;;;3.67;0.90;;;14.20;98.80;;;;;;7369230;19;20844;-81
2023/01/11 03:38:23;;;;;;;5.38;0.80;;;14.30;98.60;;;;;;7368178;19;20019;-81
2023/01/11 03:40:57;;;;;;;13.95;0.70;;;14.20;98.70;;;;;;7367573;19;20433;-81
2023/01/11 03:43:27;;;;;;;0.65;0.65;;;13.70;99.60;;;;;;7369111;19;20022;-81
2023/01/11 03:46:01;;;;;;;0.60;0.55;;;13.70;99.90;;;;;;7391145;19;20011;-81
2023/01/11 03:48:38;;;;;;;2.20;1.05;;;13.80;99.70;;;;;;7370456;19;20018;-81
2023/01/11 03:51:11;;;;;;;1.77;0.55;;;13.90;99.60;;;;;;7371042;19;20034;-81
2023/01/11 03:53:42;;;;;;;0.82;0.50;;;13.90;99.70;;;;;;7371450;19;20023;-81
2023/01/11 03:56:14;;;;;;;0.93;0.63;;;14.10;99.30;;;;;;7372080;19;20664;-81
2023/01/11 03:58:43;;;;;;;0.50;0.50;;;14.20;99.10;;;;;;7370733;19;20331;-81
2023/01/11 04:01:12;;;;;;;0.93;0.60;;;14.20;98.90;;;;;;7389972;19;20038;-81
2023/01/11 04:03:44;;;;;;;3.22;0.55;;;14.20;98.90;;;;;;7370109;19;20357;-81
2023/01/11 04:06:14;;;;;;;1.10;0.50;;;14.10;99.00;;;;;;7368613;19;20573;-81
2023/01/11 04:08:42;;;;;;;1.67;0.50;;;14.30;98.90;;;;;;7370503;19;20018;-81
2023/01/11 04:11:12;;;;;;;0.43;0.40;;;14.20;98.80;;;;;;7369995;19;20026;-80
2023/01/11 04:13:41;;;;;;;1.05;0.50;;;14.20;99.00;;;;;;7366601;19;20022;-80
2023/01/11 04:16:10;;;;;;;0.85;0.52;;;14.20;98.90;;;;;;7389066;19;20025;-80
2023/01/11 04:18:39;;;;;;;0.60;0.28;;;14.20;99.00;;;;;;7365460;19;20018;-80
2023/01/11 04:21:10;;;;;;;1.45;1.30;;;14.10;99.00;;;;;;7365394;19;20014;-80
2023/01/11 04:23:39;;;;;;;;;;;14.20;99.00;;;;;;7367865;19;20040;-80
2023/01/11 04:26:07;;;;;;;0.30;0.30;;;14.30;98.90;;;;;;7365532;19;19930;-80
2023/01/11 04:28:36;;;;;;;4.03;0.40;;;14.30;98.70;;;;;;7365383;19;20015;-80
2023/01/11 04:31:05;;;;;;;0.57;0.40;;;14.40;98.60;;;;;;7392435;19;20022;-81
2023/01/11 04:33:34;;;;;;;1.95;0.50;;;14.20;98.80;;;;;;7375549;19;20026;-80
2023/01/11 04:36:07;;;;;;;0.77;0.40;;;14.30;98.80;;;;;;7376046;19;20106;-80
2023/01/11 04:38:39;;;;;;;2.75;0.47;;;14.00;99.10;;;;;;7376932;19;20065;-79
2023/01/11 04:43:49;;;;;;;0.47;0.30;;;14.30;98.80;;;;;;7378856;19;20014;-80
2023/01/11 04:46:17;;;;;;;2.05;0.40;;;14.20;98.70;;;;;;7397570;19;20023;-81
2023/01/11 04:48:46;;;;;;;0.30;0.20;;;14.20;98.80;;;;;;7373920;19;20010;-81
2023/01/11 04:51:15;;;;;;;0.70;0.40;;;14.00;99.10;;;;;;7371560;19;20031;-81
2023/01/11 04:53:49;;;;;;;1.00;0.30;;;14.10;99.10;;;;;;7373476;19;20010;-81
2023/01/11 04:56:18;;;;;;;3.95;0.50;;;14.00;99.30;;;;;;7373181;19;20045;-81
2023/01/11 04:58:47;;;;;;;1.75;0.50;;;14.00;99.30;;;;;;7371723;19;20015;-81
2023/01/11 05:01:18;;;;;;;5.05;0.52;;;14.00;99.20;;;;;;7392363;19;20118;-81
2023/01/11 05:03:48;;;;;;;2.22;0.38;;;13.80;99.40;;;;;;7374322;19;20062;-82
2023/01/11 05:06:18;;;;;;;0.73;0.32;;;14.00;99.20;;;;;;7374550;19;20473;-81
2023/01/11 05:08:50;;;;;;;1.95;0.30;;;14.10;98.90;;;;;;7380061;19;20040;-81
2023/01/11 05:11:19;;;;;;;1.10;0.20;;;14.20;98.70;;;;;;7397771;19;20007;-80
2023/01/11 05:13:48;;;;;;;0.93;0.30;;;14.20;98.60;;;;;;7396537;19;20014;-81
2023/01/11 05:16:19;;;;;;;5.90;0.50;;;14.00;98.40;;;;;;7397994;19;20021;-80
2023/01/11 05:18:49;;;;;;;1.55;0.45;;;14.10;98.40;;;;;;7374790;19;20022;-80
2023/01/11 05:21:21;;;;;;;6.77;0.77;;;14.10;98.40;;;;;;7373218;19;20021;-81
2023/01/11 05:23:52;;;;;;;3.28;0.70;;;14.10;98.00;;;;;;7374258;19;20055;-80
2023/01/11 05:26:23;;;;;;;6.72;0.65;;;14.10;98.00;;;;;;7371737;19;20010;-80
2023/01/11 05:28:53;;;;;;;9.38;0.68;;;14.10;97.80;;;;;;7370108;19;20906;-81
2023/01/11 05:31:22;;;;;;;3.53;0.63;;;14.10;97.80;;;;;;7393592;19;20043;-80
2023/01/11 05:33:50;;;;;;;2.40;0.60;;;14.10;97.80;;;;;;7375665;19;20074;-81
2023/01/11 05:36:23;;;;;;;8.05;0.88;;;14.10;97.80;;;;;;7372189;19;20441;-80
2023/01/11 05:38:55;;;;;;;8.82;0.75;;;14.00;97.70;;;;;;7371960;19;20508;-80
2023/01/11 05:41:27;;;;;;;6.25;1.35;;;13.90;97.90;;;;;;7370813;19;20576;-80
2023/01/11 05:46:39;;;;;;;10.27;0.98;;;13.60;98.10;;;;;;7371332;19;20018;-80
2023/01/11 05:49:08;;;;;;;8.23;1.38;;;13.60;98.40;;;;;;7390690;19;20048;-82
2023/01/11 05:51:38;;;;;;;10.10;1.45;;;13.60;98.60;;;;;;7370565;19;20014;-80
2023/01/11 05:54:12;;;;;;;13.68;1.73;;;13.60;98.10;;;;;;7374640;19;20010;-80
2023/01/11 05:56:41;;;;;;;398.63;40.90;;;13.60;98.10;;;;;;7371711;19;20082;-83
2023/01/11 05:59:10;;;;;;;14.20;1.50;;;13.70;97.80;;;;;;7371011;19;20071;-83
2023/01/11 06:01:40;;;;;;;676.65;30.23;;;13.70;97.70;;;;;;7366424;19;20390;-84
2023/01/11 06:04:09;;;;;;;187.05;9.27;;;13.80;97.80;;;;;;7393127;19;20043;-83
2023/01/11 06:06:38;;;;;;;15.20;1.70;;;13.80;97.80;;;;;;7380137;19;20019;-84
2023/01/11 06:09:12;;;;;;;8.35;1.63;;;13.80;97.60;;;;;;7395196;19;20013;-88
2023/01/11 06:11:41;;;;;;;14.73;1.90;;;13.80;97.70;;;;;;7324306;19;21189;-86
2023/01/11 06:14:10;;;;;;;27.90;2.33;;;13.70;97.80;;;;;;7394781;19;20017;-87
2023/01/11 06:16:39;;;;;;;173.35;7.60;;;13.80;97.70;;;;;;7393606;19;20022;-83
2023/01/11 06:19:10;;;;;;;18.17;1.88;;;13.80;97.70;;;;;;7397953;19;20049;-77
2023/01/11 06:21:39;;;;;;;16.33;2.17;;;13.80;97.40;;;;;;7372211;19;20082;-76
2023/01/11 06:24:10;;;;;;;27.67;2.50;;;13.80;97.30;;;;;;7368373;19;20054;-79
2023/01/11 06:26:39;;;;;;;;;;;13.80;97.30;;;;;;7370898;19;20314;-80
2023/01/11 06:29:11;;;;;;;22.27;2.33;;;13.90;97.30;;;;;;7369917;19;19982;-88
2023/01/11 06:32:22;;;;;;;24.02;2.47;;;13.90;97.10;;;;;;7362876;19;20022;-85
2023/01/11 06:35:25;;;;;;;15.70;1.83;;;13.80;97.10;;;;;;7340795;19;20014;-86
2023/01/11 06:37:54;;;;;;;19.33;1.90;;;13.80;97.00;;;;;;7381114;19;20050;-83
2023/01/11 06:40:25;;;;;;;14.55;1.95;;;13.70;96.90;;;;;;7392940;19;20035;-83
2023/01/11 06:42:54;;;;;;;24.65;2.53;;;13.60;96.90;;;;;;7400303;19;20477;-83
2023/01/11 06:45:31;;;;;;;12.45;1.80;;;13.60;96.80;;;;;;7379694;19;20102;-83
2023/01/11 06:47:59;;;;;;;22.40;2.42;;;13.60;96.70;;;;;;7380633;19;20030;-83
2023/01/11 06:50:29;;;;;;;19.70;2.13;;;13.60;96.50;;;;;;7374641;19;20014;-83
2023/01/11 06:53:00;;;;;;;17.30;1.92;;;13.60;96.50;;;;;;7378282;19;20035;-83
2023/01/11 06:55:32;;;;;;;21.95;2.60;;;13.60;96.40;;;;;;7372077;19;20090;-83
2023/01/11 06:58:01;;;;;;;13.27;1.73;;;13.60;96.40;;;;;;7396579;19;20038;-83
2023/01/11 07:00:30;;;;;;;25.30;2.65;;;13.50;96.30;;;;;;7373375;19;20046;-83
2023/01/11 07:03:02;;;;;;;17.50;1.88;;;13.50;96.30;;;;;;7374700;19;20032;-83
2023/01/11 07:05:31;;;;;;;19.05;2.25;;;13.50;96.30;;;;;;7375381;19;20014;-83
2023/01/11 07:08:00;;;;;;;26.95;2.38;;;13.50;96.10;;;;;;7373971;19;20018;-83
2023/01/11 07:10:31;;;;;;;17.38;2.25;;;13.50;96.10;;;;;;7372610;19;20042;-83
2023/01/11 07:13:00;;;;;;;17.58;1.90;;;13.50;96.10;;;;;;7393496;19;20043;-83
2023/01/11 07:15:29;;;;;;;16.65;2.05;;;13.50;96.00;;;;;;7373848;19;20021;-83
2023/01/11 07:18:00;;;;;;;21.25;2.65;;;13.50;96.00;;;;;;7391497;19;20095;-83
2023/01/11 07:20:29;;;;;;;16.33;2.50;;;13.50;95.90;;;;;;7381683;19;20081;-84
2023/01/11 07:23:00;;;;;;;27.38;2.63;;;13.50;95.90;;;;;;7371885;19;20038;-83
2023/01/11 07:25:32;;;;;;;17.27;2.13;;;13.50;95.90;;;;;;7371399;19;20018;-84
2023/01/11 07:28:06;;;;;;;21.83;1.92;;;13.50;95.90;;;;;;7391489;19;20018;-84
2023/01/11 07:30:38;;;;;;;19.08;1.98;;;13.50;95.80;;;;;;7369291;19;20997;-84
2023/01/11 07:33:09;;;;;;;19.35;2.30;;;13.50;95.80;;;;;;7369173;19;20034;-84
2023/01/11 07:35:38;;;;;;;16.10;2.05;;;13.50;95.80;;;;;;7370338;19;20017;-84
2023/01/11 07:38:09;;;;;;;17.08;2.20;;;13.50;96.10;;;;;;7370857;19;20018;-84
2023/01/11 07:40:40;;;;;;;14.45;2.10;;;13.50;95.70;;;;;;7369848;19;20014;-84
2023/01/11 07:43:10;;;;;;;20.85;2.08;;;13.50;95.60;;;;;;7391148;19;20042;-83
2023/01/11 07:45:40;;;;;;;22.40;2.13;;;13.50;95.70;;;;;;7369889;19;20017;-84
2023/01/11 07:48:10;;;;;;;28.63;4.47;;;13.50;95.80;;;;;;7368979;19;20077;-83
2023/01/11 07:50:41;;;;;;;26.02;3.13;;;13.50;95.80;;;;;;7369457;19;20029;-83
2023/01/11 07:53:10;;;;;;;17.45;2.65;;;13.50;95.80;;;;;;7369633;19;20038;-84
2023/01/11 07:55:43;;;;;;;15.55;2.10;;;13.50;95.90;;;;;;7369576;19;20049;-83
2023/01/11 07:58:14;;;;;;;34.75;3.03;;;13.50;95.90;;;;;;7390866;19;20018;-84
2023/01/11 08:00:44;;;;;;;24.27;4.10;;;13.50;95.80;;;;;;7375110;19;20010;-83
2023/01/11 08:03:13;;;;;;;19.38;3.22;;;13.60;95.80;;;;;;7369375;19;20014;-83
2023/01/11 08:05:42;;;;;;;16.00;3.53;;;13.50;95.70;;;;;;7368771;19;20017;-83
2023/01/11 08:08:11;;;;;;;12.93;1.83;;;13.50;95.70;;;;;;7368410;19;20394;-83
2023/01/11 08:10:46;;;;;;;25.10;2.47;;;13.50;95.60;;;;;;7368696;19;20382;-83
2023/01/11 08:15:58;;;;;;;26.77;3.33;;;13.40;95.60;;;;;;7368085;19;20029;-83
2023/01/11 08:18:27;;;;;;;13.95;2.90;;;13.30;95.70;;;;;;7370774;19;20011;-82
2023/01/11 08:20:56;;;;;;;16.65;2.22;;;13.30;95.70;;;;;;7373764;19;20022;-83
2023/01/11 08:23:25;;;;;;;15.00;2.25;;;13.20;95.70;;;;;;7371244;19;20018;-84
2023/01/11 08:26:00;;;;;;;28.45;2.53;;;13.20;95.60;;;;;;7369332;19;20568;-84
2023/01/11 08:28:29;;;;;;;24.27;2.85;;;13.10;95.60;;;;;;7369774;19;20022;-82
2023/01/11 08:30:58;;;;;;;13.82;2.90;;;13.10;95.60;;;;;;7387905;19;20027;-83
2023/01/11 08:33:27;;;;;;;21.77;2.97;;;13.20;95.60;;;;;;7369376;19;20025;-83
2023/01/11 08:36:00;;;;;;;24.67;2.72;;;13.20;95.50;;;;;;7369706;19;20024;-83
2023/01/11 08:38:28;;;;;;;16.27;2.38;;;13.20;95.50;;;;;;7368401;19;20011;-83
2023/01/11 08:41:00;;;;;;;20.15;2.30;;;13.10;95.30;;;;;;7371111;19;20023;-83
2023/01/11 08:43:30;;;;;;;24.85;2.72;;;13.20;95.10;;;;;;7370587;19;20675;-83
2023/01/11 08:45:59;;;;;;;34.65;3.20;;;13.30;95.20;;;;;;7403761;19;20006;-83
2023/01/11 08:48:27;;;;;;;26.50;3.33;;;13.20;94.90;;;;;;7392985;19;20129;-83
2023/01/11 08:50:56;;;;;;;27.08;3.40;;;13.20;94.70;;;;;;7383876;19;20373;-83
2023/01/11 08:53:25;;;;;;;17.05;2.50;;;13.20;94.70;;;;;;7380122;19;20034;-83
2023/01/11 08:55:55;;;;;;;18.83;3.35;;;12.90;94.90;;;;;;7377118;19;20023;-83
2023/01/11 08:58:30;;;;;;;23.73;2.30;;;12.90;95.00;;;;;;7382858;19;20011;-83
2023/01/11 09:01:01;;;;;;;23.05;2.85;;;12.80;95.30;;;;;;7391668;19;20010;-84
2023/01/11 09:03:30;;;;;;;34.22;2.78;;;12.90;94.90;;;;;;7374383;19;20018;-83
2023/01/11 09:05:59;;;;;;;31.20;3.38;;;12.90;94.70;;;;;;7370794;19;20058;-84
2023/01/11 09:08:29;;;;;;;24.65;3.03;;;12.90;94.70;;;;;;7368845;19;20055;-82
2023/01/11 09:10:58;;;;;;;20.90;2.38;;;13.00;94.70;;;;;;7367453;19;20010;-83
2023/01/11 09:13:30;;;;;;;15.73;2.95;;;13.00;94.50;;;;;;7368721;19;20015;-83
2023/01/11 09:16:05;;;;;;;20.20;2.55;;;13.10;94.50;;;;;;7387722;19;20026;-83
2023/01/11 09:18:33;;;;;;;23.30;2.40;;;13.20;94.40;;;;;;7372722;19;20011;-82
2023/01/11 09:21:02;;;;;;;15.45;2.45;;;13.00;93.60;;;;;;7374252;19;20552;-82
2023/01/11 09:23:31;;;;;;;25.08;3.15;;;12.70;94.60;;;;;;7374414;19;20019;-82
2023/01/11 09:26:00;;;;;;;27.90;2.92;;;12.90;94.50;;;;;;7376308;19;20010;-82
2023/01/11 09:28:31;;;;;;;22.27;1.88;;;12.80;94.20;;;;;;7373887;19;20022;-82
2023/01/11 09:31:00;;;;;;;22.58;2.25;;;12.90;93.90;;;;;;7396179;19;20038;-82
2023/01/11 09:33:29;;;;;;;17.98;2.60;;;12.70;93.80;;;;;;7373849;19;20018;-82
2023/01/11 09:36:00;;;;;;;22.75;2.53;;;12.90;93.80;;;;;;7376368;19;20018;-81
2023/01/11 09:38:32;;;;;;;16.77;2.00;;;12.70;93.60;;;;;;7370823;19;20655;-82
2023/01/11 09:41:10;;;;;;;19.20;2.35;;;12.60;93.70;;;;;;7374224;19;20014;-81
2023/01/11 09:43:47;;;;;;;14.38;1.95;;;12.40;93.70;;;;;;7374832;19;20083;-81
2023/01/11 09:46:16;;;;;;;13.93;1.60;;;12.50;93.70;;;;;;7396716;19;20042;-81
2023/01/11 09:48:48;;;;;;;14.55;2.25;;;12.50;93.30;;;;;;7371023;19;20102;-80
2023/01/11 09:51:18;;;;;;;23.10;2.38;;;12.40;93.10;;;;;;7372152;19;20030;-81
2023/01/11 09:53:52;;;;;;;16.33;2.10;;;12.30;93.20;;;;;;7372335;19;20046;-81
2023/01/11 09:56:26;;;;;;;12.60;2.17;;;12.40;93.10;;;;;;7371485;19;20014;-82
2023/01/11 09:59:05;;;;;;;8.57;1.63;;;12.40;93.20;;;;;;7373666;19;20014;-81
2023/01/11 10:01:39;;;;;;;10.48;1.35;;;12.60;92.70;;;;;;7376457;19;20025;-81
2023/01/11 10:04:35;;;;;;;15.55;1.67;;;12.60;92.70;;;;;;7404351;19;20010;-81
2023/01/11 10:07:42;;;;;;;11.80;1.73;;;12.70;92.50;;;;;;7386633;19;20018;-82
2023/01/11 10:10:24;;;;;;;12.98;1.90;;;12.80;92.40;;;;;;7402248;19;20010;-80
2023/01/11 10:13:02;;;;;;;21.20;2.45;;;12.80;92.40;;;;;;7403988;19;20017;-81
2023/01/11 10:15:40;;;;;;;15.32;1.95;;;13.00;92.40;;;;;;7395831;19;20017;-81
2023/01/11 10:18:25;;;;;;;16.05;1.63;;;13.00;92.20;;;;;;7385831;19;20010;-81
2023/01/11 10:20:57;;;;;;;14.88;1.75;;;13.00;92.10;;;;;;7385379;19;20099;-82
2023/01/11 10:23:32;;;;;;;11.57;1.90;;;13.10;92.10;;;;;;7376799;19;20089;-82
2023/01/11 10:26:08;;;;;;;19.38;2.25;;;13.20;92.00;;;;;;7374275;19;20807;-82
2023/01/11 10:28:45;;;;;;;18.58;2.33;;;13.20;92.20;;;;;;7372196;19;20568;-81
2023/01/11 10:31:42;;;;;;;23.13;2.92;;;13.20;92.20;;;;;;7393593;19;20438;-81
2023/01/11 10:34:37;;;;;;;15.13;2.50;;;13.20;92.30;;;;;;7373317;19;20036;-82
2023/01/11 10:37:26;;;;;;;11.48;2.85;;;13.20;92.20;;;;;;7376402;19;20472;-82
2023/01/11 10:40:18;;;;;;;14.75;2.65;;;13.20;92.40;;;;;;7374851;19;20019;-82
2023/01/11 10:42:51;;;;;;;19.75;2.75;;;13.30;92.30;;;;;;7373587;19;20026;-82
2023/01/11 10:45:24;;;;;;;19.60;2.97;;;13.30;92.20;;;;;;7375568;19;20015;-81
2023/01/11 10:48:00;;;;;;;22.60;2.53;;;13.30;92.30;;;;;;7396737;19;20015;-82
2023/01/11 10:50:35;;;;;;;17.38;2.17;;;13.30;92.20;;;;;;7396549;19;20014;-83
2023/01/11 10:53:09;;;;;;;20.73;2.83;;;13.40;92.30;;;;;;7384076;19;20508;-82
2023/01/11 10:55:47;;;;;;;14.20;2.45;;;13.40;92.30;;;;;;7379564;19;20010;-82
2023/01/11 10:58:33;;;;;;;21.92;2.83;;;13.40;92.40;;;;;;7396312;19;20077;-82
2023/01/11 11:01:15;;;;;;;22.25;3.67;;;13.40;92.50;;;;;;7375818;19;20006;-81
2023/01/11 11:03:58;;;;;;;12.20;2.08;;;13.50;92.40;;;;;;7371757;19;20015;-81
2023/01/11 11:06:38;;;;;;;13.20;2.30;;;13.40;92.10;;;;;;7376516;19;20085;-81
2023/01/11 11:09:13;;;;;;;18.83;2.90;;;13.50;92.10;;;;;;7376012;19;20121;-82
2023/01/11 11:11:51;;;;;;;15.98;2.47;;;13.50;92.20;;;;;;7373579;19;20060;-82
2023/01/11 11:14:25;;;;;;;18.38;2.30;;;13.40;92.30;;;;;;7372013;19;20003;-81
2023/01/11 11:17:04;;;;;;;25.60;2.70;;;13.20;92.20;;;;;;7372759;19;20010;-82
2023/01/11 11:19:35;;;;;;;30.40;3.33;;;13.20;92.40;;;;;;7372964;19;20018;-82
2023/01/11 11:22:04;;;;;;;;;;;13.40;92.10;;;;;;7394285;19;20015;-82
2023/01/11 11:24:37;;;;;;;24.95;2.95;;;13.40;91.90;;;;;;7371451;19;19981;-81
2023/01/11 11:27:17;;;;;;;22.42;2.95;;;13.50;91.80;;;;;;7370495;19;20026;-81
2023/01/11 11:29:51;;;;;;;17.02;2.53;;;13.40;91.60;;;;;;7371414;19;20010;-80
2023/01/11 11:32:28;;;;;;;20.15;2.70;;;13.30;91.90;;;;;;7369709;19;20029;-80
2023/01/11 11:35:00;;;;;;;17.60;2.17;;;13.20;91.60;;;;;;7368299;19;20089;-81
2023/01/11 11:37:34;;;;;;;18.98;2.55;;;13.00;91.70;;;;;;7367038;19;20018;-81
2023/01/11 11:40:04;;;;;;;18.30;2.47;;;13.20;91.70;;;;;;7390212;19;20018;-81
2023/01/11 11:42:33;;;;;;;15.57;2.20;;;12.80;91.70;;;;;;7367518;19;20025;-80
2023/01/11 11:45:17;;;;;;;14.77;1.98;;;12.70;91.90;;;;;;7368741;19;20474;-80
2023/01/11 11:48:06;;;;;;;15.82;2.20;;;12.80;91.70;;;;;;7368986;19;20011;-81
2023/01/11 11:50:38;;;;;;;11.07;1.88;;;13.20;91.60;;;;;;7367613;19;20522;-81
2023/01/11 11:53:07;;;;;;;20.55;2.78;;;13.40;91.30;;;;;;7368176;19;20122;-81
2023/01/11 11:55:37;;;;;;;21.10;2.08;;;13.50;91.00;;;;;;7370955;19;20042;-81
2023/01/11 11:58:10;;;;;;;12.18;2.33;;;13.50;91.00;;;;;;7393632;19;20078;-80
2023/01/11 12:00:46;;;;;;;15.85;2.20;;;13.60;90.70;;;;;;7370310;19;20026;-81
2023/01/11 12:03:20;;;;;;;20.10;2.58;;;13.60;90.50;;;;;;7370306;19;20399;-81
2023/01/11 12:05:59;;;;;;;15.65;2.35;;;13.60;90.10;;;;;;7372266;19;20019;-81
2023/01/11 12:08:28;;;;;;;20.52;2.35;;;13.30;90.00;;;;;;7369396;19;20033;-81
2023/01/11 12:11:00;;;;;;;17.27;2.67;;;13.10;90.10;;;;;;7368415;19;20086;-81
2023/01/11 12:13:32;;;;;;;;;;;13.10;90.40;;;;;;7367872;19;20011;-81
2023/01/11 12:16:03;;;;;;;23.55;2.83;;;13.40;90.50;;;;;;7393615;19;19914;-81
2023/01/11 12:18:41;;;;;;;11.67;2.43;;;13.40;89.60;;;;;;7371059;19;20029;-81
2023/01/11 12:21:28;;;;;;;20.67;2.88;;;13.50;88.60;;;;;;7385073;19;20043;-82
2023/01/11 12:24:12;;;;;;;16.10;2.15;;;13.30;89.00;;;;;;7380580;19;20014;-81
2023/01/11 12:26:48;;;;;;;15.38;2.03;;;13.40;89.40;;;;;;7374503;19;20469;-81
2023/01/11 12:29:45;;;;;;;11.45;2.13;;;13.60;89.30;;;;;;7373305;19;20154;-81
2023/01/11 12:32:32;;;;;;;19.83;2.80;;;13.70;88.80;;;;;;7368038;19;20076;-80
2023/01/11 12:35:18;;;;;;;22.50;2.33;;;13.80;87.10;;;;;;7368304;19;20028;-80
2023/01/11 12:38:19;;;;;;;19.08;2.75;;;13.50;88.10;;;;;;7367961;19;20022;-81
2023/01/11 12:41:00;;;;;;;22.17;2.55;;;13.70;87.70;;;;;;7370284;19;20018;-80
2023/01/11 12:43:41;;;;;;;11.33;2.10;;;14.00;87.50;;;;;;7367106;19;20109;-80
2023/01/11 12:46:21;;;;;;;20.40;2.50;;;14.10;86.90;;;;;;7387100;19;20564;-81
2023/01/11 12:49:16;;;;;;;17.33;2.20;;;14.20;86.60;;;;;;7368249;19;20744;-81
2023/01/11 12:52:03;;;;;;;14.73;2.65;;;14.20;85.10;;;;;;7369061;19;20034;-81
2023/01/11 12:55:01;;;;;;;19.45;3.58;;;14.10;85.80;;;;;;7375356;19;20034;-81
2023/01/11 12:57:38;;;;;;;21.98;1.95;;;14.20;85.50;;;;;;7375525;19;20021;-81
2023/01/11 13:00:26;;;;;;;16.05;2.30;;;14.40;84.80;;;;;;7375006;19;20086;-81
2023/01/11 13:03:20;;;;;;;23.10;2.92;;;14.20;83.70;;;;;;7373574;19;20090;-81
2023/01/11 13:05:59;;;;;;;23.45;2.40;;;14.00;84.60;;;;;;7375206;19;20022;-82
2023/01/11 13:08:41;;;;;;;23.88;2.50;;;13.90;85.40;;;;;;7373759;19;20611;-82
2023/01/11 13:11:33;;;;;;;18.92;2.70;;;14.00;85.10;;;;;;7375446;19;20249;-81
2023/01/11 13:14:15;;;;;;;27.45;2.97;;;14.10;84.20;;;;;;7373369;19;20354;-81
2023/01/11 13:16:53;;;;;;;19.35;2.47;;;14.00;83.30;;;;;;7375190;19;20027;-81
2023/01/11 13:19:28;;;;;;;23.02;2.80;;;13.90;83.80;;;;;;7397120;19;20015;-81
2023/01/11 13:22:03;;;;;;;22.52;2.50;;;14.00;83.50;;;;;;7375313;19;20019;-81
2023/01/11 13:24:34;;;;;;;26.25;2.80;;;14.00;83.30;;;;;;7373995;19;20030;-81
2023/01/11 13:27:14;;;;;;;20.65;2.60;;;13.90;82.70;;;;;;7375298;19;20010;-82
2023/01/11 13:29:46;;;;;;;19.15;2.22;;;13.90;82.00;;;;;;7375026;19;20090;-81
2023/01/11 13:32:18;;;;;;;25.30;2.58;;;13.80;82.00;;;;;;7375614;19;20023;-81
2023/01/11 13:34:53;;;;;;;20.20;2.45;;;14.00;81.70;;;;;;7375963;19;20018;-81
2023/01/11 13:37:28;;;;;;;19.73;2.22;;;14.00;79.50;;;;;;7396682;19;20015;-82
2023/01/11 13:40:03;;;;;;;18.05;2.55;;;14.00;79.80;;;;;;7375498;19;20743;-82
2023/01/11 13:42:38;;;;;;;20.17;2.60;;;14.10;80.00;;;;;;7374275;19;20015;-81